Time;durP1;ratioP1;P1;durP2;ratioP2;P2;SDS_P1;SDS_P2;PMS_P1;PMS_P2;Temp;Humidity;BMP_temperature;BMP_pressure;BME280_temperature;BME280_humidity;BME280_pressure;Samples;Min_cycle;Max_cycle;Signal;HPM_P1;HPM_P2
2023/03/26 00:02:11;;;;;;;7.28;2.67;;;;;;;;;;5071870;28;20050;-68
2023/03/26 00:04:37;;;;;;;8.75;2.97;;;;;;;;;;5071785;28;20028;-68
2023/03/26 00:07:03;;;;;;;9.40;2.72;;;;;;;;;;5071879;28;20419;-69
2023/03/26 00:09:30;;;;;;;7.95;2.50;;;;;;;;;;5070660;28;20028;-66
2023/03/26 00:11:56;;;;;;;9.70;2.92;;;;;;;;;;5070062;28;20096;-61
2023/03/26 00:14:22;;;;;;;8.52;2.65;;;;;;;;;;5069868;28;20027;-62
2023/03/26 00:16:48;;;;;;;9.05;2.67;;;;;;;;;;5069631;28;20680;-62
2023/03/26 00:19:15;;;;;;;10.18;3.13;;;;;;;;;;5069992;28;20021;-63
2023/03/26 00:21:41;;;;;;;8.25;2.95;;;;;;;;;;5069363;28;20036;-61
2023/03/26 00:24:10;;;;;;;10.20;2.88;;;;;;;;;;5069430;28;20040;-62
2023/03/26 00:26:37;;;;;;;10.63;2.78;;;;;;;;;;5069210;28;20427;-64
2023/03/26 00:29:03;;;;;;;10.80;3.28;;;;;;;;;;5071131;28;20172;-61
2023/03/26 00:31:30;;;;;;;11.48;2.80;;;;;;;;;;5071195;28;20082;-65
2023/03/26 00:33:56;;;;;;;8.98;2.95;;;;;;;;;;5071735;28;20376;-60
2023/03/26 00:36:24;;;;;;;11.30;3.20;;;;;;;;;;5071608;28;20047;-66
2023/03/26 00:38:51;;;;;;;8.43;3.03;;;;;;;;;;5070773;28;20029;-61
2023/03/26 00:41:25;;;;;;;9.00;2.83;;;;;;;;;;5071111;28;20542;-61
2023/03/26 00:43:55;;;;;;;8.70;2.70;;;;;;;;;;5070962;28;20120;-61
2023/03/26 00:46:22;;;;;;;11.23;3.17;;;;;;;;;;5071621;28;20089;-61
2023/03/26 00:48:49;;;;;;;7.85;2.70;;;;;;;;;;5071038;28;20039;-61
2023/03/26 00:51:16;;;;;;;9.32;2.63;;;;;;;;;;5071170;28;20033;-68
2023/03/26 00:53:43;;;;;;;10.93;3.22;;;;;;;;;;5069912;28;20027;-64
2023/03/26 00:56:09;;;;;;;7.78;2.83;;;;;;;;;;5070630;28;20032;-63
2023/03/26 00:58:35;;;;;;;7.97;2.90;;;;;;;;;;5070956;28;20397;-64
2023/03/26 01:01:03;;;;;;;7.80;2.67;;;;;;;;;;5071118;28;20020;-61
2023/03/26 01:03:32;;;;;;;6.97;2.53;;;;;;;;;;5070761;28;20028;-64
2023/03/26 01:06:03;;;;;;;8.00;2.17;;;;;;;;;;5071109;28;20032;-65
2023/03/26 01:08:43;;;;;;;10.98;2.75;;;;;;;;;;5070639;28;20016;-65
2023/03/26 01:11:15;;;;;;;8.18;2.67;;;;;;;;;;5070760;28;20115;-66
2023/03/26 01:13:46;;;;;;;10.88;2.80;;;;;;;;;;5070774;28;20028;-65
2023/03/26 01:16:20;;;;;;;9.23;3.20;;;;;;;;;;5070946;28;20025;-61
2023/03/26 01:18:47;;;;;;;9.67;2.70;;;;;;;;;;5069513;28;20404;-60
2023/03/26 01:21:13;;;;;;;9.30;2.80;;;;;;;;;;5070691;28;20079;-60
2023/03/26 01:23:39;;;;;;;7.28;2.95;;;;;;;;;;5070632;28;20499;-65
2023/03/26 01:26:10;;;;;;;7.35;2.75;;;;;;;;;;5070657;28;20060;-66
2023/03/26 01:28:40;;;;;;;9.35;2.80;;;;;;;;;;5070604;28;20469;-66
2023/03/26 01:31:29;;;;;;;8.75;2.55;;;;;;;;;;5070622;28;20433;-65
2023/03/26 01:34:18;;;;;;;8.48;2.78;;;;;;;;;;5060807;28;20033;-66
2023/03/26 01:36:54;;;;;;;8.85;2.47;;;;;;;;;;5067484;28;20039;-64
2023/03/26 01:39:25;;;;;;;8.50;2.65;;;;;;;;;;5070302;28;20696;-65
2023/03/26 01:41:55;;;;;;;12.07;2.95;;;;;;;;;;5070700;28;20029;-65
2023/03/26 01:44:21;;;;;;;8.73;2.40;;;;;;;;;;5071078;28;20135;-65
2023/03/26 01:46:48;;;;;;;8.40;2.40;;;;;;;;;;5070348;28;20115;-62
2023/03/26 01:49:14;;;;;;;9.68;2.90;;;;;;;;;;5070672;28;20079;-63
2023/03/26 01:51:40;;;;;;;7.22;2.72;;;;;;;;;;5070310;28;20029;-65
2023/03/26 01:54:08;;;;;;;8.55;2.47;;;;;;;;;;5070192;28;20025;-64
2023/03/26 01:56:50;;;;;;;7.35;2.13;;;;;;;;;;5069817;28;20061;-61
2023/03/26 01:59:24;;;;;;;6.75;2.10;;;;;;;;;;5050501;28;20473;-61
2023/03/26 02:02:09;;;;;;;8.40;2.83;;;;;;;;;;5049956;28;20029;-66
2023/03/26 02:04:44;;;;;;;5.90;1.80;;;;;;;;;;5050077;28;20048;-60
2023/03/26 02:07:19;;;;;;;8.65;2.90;;;;;;;;;;5054058;28;20492;-60
2023/03/26 02:09:48;;;;;;;8.85;2.95;;;;;;;;;;5053759;28;20040;-62
2023/03/26 02:12:15;;;;;;;6.35;2.63;;;;;;;;;;5062463;28;20056;-61
2023/03/26 02:14:41;;;;;;;6.13;2.45;;;;;;;;;;5073718;28;20032;-60
2023/03/26 02:17:09;;;;;;;8.23;2.70;;;;;;;;;;5073817;28;20024;-63
2023/03/26 02:19:35;;;;;;;6.22;2.22;;;;;;;;;;5073407;28;20029;-61
2023/03/26 02:22:01;;;;;;;9.68;2.63;;;;;;;;;;5073781;28;20105;-60
2023/03/26 02:24:27;;;;;;;6.95;2.47;;;;;;;;;;5073513;28;20033;-61
2023/03/26 02:26:53;;;;;;;7.20;2.38;;;;;;;;;;5073397;28;20036;-60
2023/03/26 02:29:20;;;;;;;7.10;2.65;;;;;;;;;;5073615;28;20099;-61
2023/03/26 02:31:47;;;;;;;7.32;2.65;;;;;;;;;;5073287;28;20028;-59
2023/03/26 02:34:13;;;;;;;6.72;2.47;;;;;;;;;;5073339;28;20024;-60
2023/03/26 02:36:41;;;;;;;6.32;2.33;;;;;;;;;;5073286;28;20058;-61
2023/03/26 02:39:09;;;;;;;8.43;2.45;;;;;;;;;;5073310;28;20025;-61
2023/03/26 02:41:35;;;;;;;8.02;2.67;;;;;;;;;;5072545;28;20078;-61
2023/03/26 02:44:01;;;;;;;6.13;2.35;;;;;;;;;;5073268;28;20036;-61
2023/03/26 02:46:27;;;;;;;8.23;2.80;;;;;;;;;;5073010;28;20020;-63
2023/03/26 02:48:53;;;;;;;8.18;2.40;;;;;;;;;;5073589;28;20029;-60
2023/03/26 02:51:20;;;;;;;7.68;2.20;;;;;;;;;;5073342;28;20104;-61
2023/03/26 02:53:46;;;;;;;7.57;3.05;;;;;;;;;;5073017;28;20017;-62
2023/03/26 02:56:12;;;;;;;6.05;2.40;;;;;;;;;;5072712;28;20064;-62
2023/03/26 02:58:38;;;;;;;6.40;2.70;;;;;;;;;;5072800;28;20473;-64
2023/03/26 03:01:04;;;;;;;5.28;2.00;;;;;;;;;;5073077;28;20020;-63
2023/03/26 03:03:30;;;;;;;6.57;2.15;;;;;;;;;;5072896;28;20044;-61
2023/03/26 03:05:56;;;;;;;6.07;2.28;;;;;;;;;;5073105;28;20062;-60
2023/03/26 03:08:25;;;;;;;6.78;2.38;;;;;;;;;;5072866;28;20075;-63
2023/03/26 03:11:23;;;;;;;5.80;2.00;;;;;;;;;;5072867;28;20029;-63
2023/03/26 03:13:50;;;;;;;6.55;2.08;;;;;;;;;;5060675;28;20489;-61
2023/03/26 03:16:16;;;;;;;6.18;1.80;;;;;;;;;;5072455;28;20151;-62
2023/03/26 03:18:42;;;;;;;6.82;2.47;;;;;;;;;;5072010;28;20064;-61
2023/03/26 03:21:08;;;;;;;6.93;2.10;;;;;;;;;;5072175;28;20079;-62
2023/03/26 03:23:34;;;;;;;9.30;2.42;;;;;;;;;;5072323;28;20039;-60
2023/03/26 03:26:01;;;;;;;7.85;2.50;;;;;;;;;;5072267;28;20029;-61
2023/03/26 03:28:27;;;;;;;5.55;2.25;;;;;;;;;;5072165;28;20392;-60
2023/03/26 03:30:56;;;;;;;5.88;1.70;;;;;;;;;;5072808;28;20099;-61
2023/03/26 03:33:22;;;;;;;5.57;2.50;;;;;;;;;;5072630;28;20492;-61
2023/03/26 03:35:49;;;;;;;5.60;1.75;;;;;;;;;;5072247;28;20048;-61
2023/03/26 03:38:16;;;;;;;8.15;2.50;;;;;;;;;;5072311;28;20029;-63
2023/03/26 03:40:42;;;;;;;9.32;2.85;;;;;;;;;;5071869;28;20439;-63
2023/03/26 03:43:08;;;;;;;7.22;2.45;;;;;;;;;;5072290;28;20050;-63
2023/03/26 03:45:35;;;;;;;7.75;2.58;;;;;;;;;;5072033;28;20025;-63
2023/03/26 03:48:01;;;;;;;8.05;2.55;;;;;;;;;;5072261;28;20119;-64
2023/03/26 03:50:27;;;;;;;5.82;2.13;;;;;;;;;;5071962;28;20021;-60
2023/03/26 03:52:54;;;;;;;6.70;2.30;;;;;;;;;;5072263;28;20029;-62
2023/03/26 03:55:22;;;;;;;6.38;2.05;;;;;;;;;;5071647;28;20035;-60
2023/03/26 03:57:51;;;;;;;7.95;2.47;;;;;;;;;;5071788;28;20108;-60
2023/03/26 04:00:17;;;;;;;4.15;2.08;;;;;;;;;;5071959;28;20027;-60
2023/03/26 04:02:44;;;;;;;6.50;2.40;;;;;;;;;;5071476;28;20397;-59
2023/03/26 04:05:11;;;;;;;7.97;2.45;;;;;;;;;;5071384;28;20469;-59
2023/03/26 04:07:37;;;;;;;5.57;1.80;;;;;;;;;;5071392;28;20062;-61
2023/03/26 04:10:03;;;;;;;7.55;2.42;;;;;;;;;;5071613;28;20381;-59
2023/03/26 04:12:30;;;;;;;7.05;1.95;;;;;;;;;;5071110;28;20476;-59
2023/03/26 04:14:56;;;;;;;7.97;2.33;;;;;;;;;;5071929;28;20423;-59
2023/03/26 04:17:22;;;;;;;7.68;2.55;;;;;;;;;;5071289;28;20369;-59
2023/03/26 04:19:49;;;;;;;10.65;2.70;;;;;;;;;;5071213;28;20115;-60
2023/03/26 04:22:17;;;;;;;4.97;2.13;;;;;;;;;;5071327;28;20036;-59
2023/03/26 04:24:43;;;;;;;5.25;1.95;;;;;;;;;;5069742;28;20110;-59
2023/03/26 04:27:12;;;;;;;6.53;2.13;;;;;;;;;;5071293;28;20021;-61
2023/03/26 04:29:43;;;;;;;5.93;2.20;;;;;;;;;;5070920;28;20392;-59
2023/03/26 04:32:18;;;;;;;7.65;2.60;;;;;;;;;;5070887;28;20033;-61
2023/03/26 04:34:44;;;;;;;4.57;1.80;;;;;;;;;;5070981;28;20499;-61
2023/03/26 04:37:15;;;;;;;5.95;1.73;;;;;;;;;;5071466;28;20032;-61
2023/03/26 04:39:41;;;;;;;5.78;2.05;;;;;;;;;;5071114;28;20134;-62
2023/03/26 04:42:09;;;;;;;8.10;2.47;;;;;;;;;;5071198;28;20017;-62
2023/03/26 04:44:35;;;;;;;5.50;1.98;;;;;;;;;;5070991;28;20571;-59
2023/03/26 04:47:01;;;;;;;5.97;1.88;;;;;;;;;;5070850;28;20063;-61
2023/03/26 04:49:27;;;;;;;6.13;1.83;;;;;;;;;;5071085;28;20033;-60
2023/03/26 04:51:53;;;;;;;5.55;2.00;;;;;;;;;;5071278;28;20024;-61
2023/03/26 04:54:23;;;;;;;5.88;2.05;;;;;;;;;;5071156;28;20021;-60
2023/03/26 04:56:53;;;;;;;5.22;1.75;;;;;;;;;;5070766;28;20040;-61
2023/03/26 04:59:25;;;;;;;4.55;1.52;;;;;;;;;;5071067;28;20021;-61
2023/03/26 05:01:51;;;;;;;7.18;2.25;;;;;;;;;;5070195;28;20041;-61
2023/03/26 05:04:17;;;;;;;7.15;2.63;;;;;;;;;;5070972;28;20040;-61
2023/03/26 05:06:43;;;;;;;4.97;1.70;;;;;;;;;;5070811;28;20020;-61
2023/03/26 05:09:10;;;;;;;5.00;1.63;;;;;;;;;;5071035;28;20028;-58
2023/03/26 05:11:37;;;;;;;6.57;2.05;;;;;;;;;;5070838;28;20062;-59
2023/03/26 05:14:03;;;;;;;4.95;1.90;;;;;;;;;;5071055;28;20029;-60
2023/03/26 05:16:30;;;;;;;4.97;1.40;;;;;;;;;;5070657;28;20124;-61
2023/03/26 05:18:56;;;;;;;3.92;1.50;;;;;;;;;;5070823;28;20024;-62
2023/03/26 05:21:22;;;;;;;4.63;1.58;;;;;;;;;;5071345;28;20032;-61
2023/03/26 05:23:48;;;;;;;4.13;1.40;;;;;;;;;;5070530;28;20450;-62
2023/03/26 05:26:14;;;;;;;4.57;1.70;;;;;;;;;;5070812;28;20028;-61
2023/03/26 05:28:40;;;;;;;3.40;1.58;;;;;;;;;;5070640;28;20032;-62
2023/03/26 05:31:07;;;;;;;5.30;1.55;;;;;;;;;;5070347;28;20036;-59
2023/03/26 05:33:33;;;;;;;5.53;1.63;;;;;;;;;;5070812;28;20048;-62
2023/03/26 05:36:03;;;;;;;5.63;1.63;;;;;;;;;;5070523;28;20059;-62
2023/03/26 05:38:29;;;;;;;3.13;1.30;;;;;;;;;;5070768;28;20021;-62
2023/03/26 05:41:00;;;;;;;7.15;1.52;;;;;;;;;;5072791;28;20028;-61
2023/03/26 05:43:26;;;;;;;5.38;1.60;;;;;;;;;;5074557;28;20450;-62
2023/03/26 05:45:52;;;;;;;5.88;1.80;;;;;;;;;;5074072;28;20037;-60
2023/03/26 05:48:19;;;;;;;6.10;1.60;;;;;;;;;;5074537;28;20119;-61
2023/03/26 05:50:47;;;;;;;4.25;1.73;;;;;;;;;;5074186;28;20091;-61
2023/03/26 05:53:13;;;;;;;4.68;1.95;;;;;;;;;;5074314;28;20464;-59
2023/03/26 05:55:39;;;;;;;4.35;1.50;;;;;;;;;;5073882;28;20028;-63
2023/03/26 05:58:05;;;;;;;3.17;1.48;;;;;;;;;;5074114;28;20033;-62
2023/03/26 06:00:32;;;;;;;5.88;1.55;;;;;;;;;;5073946;28;20159;-63
2023/03/26 06:02:59;;;;;;;5.80;1.63;;;;;;;;;;5074142;28;20457;-62
2023/03/26 06:05:25;;;;;;;3.20;1.35;;;;;;;;;;5073214;28;20068;-62
2023/03/26 06:07:51;;;;;;;3.15;1.48;;;;;;;;;;5072674;28;20025;-63
2023/03/26 06:10:17;;;;;;;3.50;1.52;;;;;;;;;;5074047;28;20021;-61
2023/03/26 06:12:43;;;;;;;4.13;1.40;;;;;;;;;;5073659;28;20039;-61
2023/03/26 06:15:09;;;;;;;5.20;2.00;;;;;;;;;;5073594;28;20362;-60
2023/03/26 06:17:35;;;;;;;4.18;1.60;;;;;;;;;;5073773;28;20489;-61
2023/03/26 06:20:01;;;;;;;4.05;1.35;;;;;;;;;;5073229;28;20123;-63
2023/03/26 06:22:27;;;;;;;3.25;1.33;;;;;;;;;;5074139;28;20431;-62
2023/03/26 06:24:53;;;;;;;3.10;1.02;;;;;;;;;;5073407;28;20036;-61
2023/03/26 06:27:20;;;;;;;4.07;1.33;;;;;;;;;;5073706;28;20445;-63
2023/03/26 06:29:46;;;;;;;2.90;1.05;;;;;;;;;;5073483;28;20071;-61
2023/03/26 06:32:12;;;;;;;4.00;1.48;;;;;;;;;;5073598;28;20028;-62
2023/03/26 06:34:39;;;;;;;4.95;1.35;;;;;;;;;;5073089;28;20028;-61
2023/03/26 06:37:05;;;;;;;3.13;1.15;;;;;;;;;;5073501;28;20489;-63
2023/03/26 06:39:30;;;;;;;4.43;1.33;;;;;;;;;;5073604;28;20029;-61
2023/03/26 06:41:56;;;;;;;2.22;1.20;;;;;;;;;;5073044;28;20490;-63
2023/03/26 06:44:22;;;;;;;3.45;1.02;;;;;;;;;;5073333;28;20048;-63
2023/03/26 06:46:49;;;;;;;3.10;1.15;;;;;;;;;;5073243;28;20024;-61
2023/03/26 06:49:15;;;;;;;3.13;1.25;;;;;;;;;;5073347;28;20048;-62
2023/03/26 06:51:42;;;;;;;4.90;1.38;;;;;;;;;;5071574;28;20020;-63
2023/03/26 06:54:08;;;;;;;2.90;1.23;;;;;;;;;;5073212;28;20035;-63
2023/03/26 06:56:34;;;;;;;4.35;1.30;;;;;;;;;;5072715;28;20099;-62
2023/03/26 06:59:00;;;;;;;2.30;0.93;;;;;;;;;;5072854;28;20099;-61
2023/03/26 07:01:26;;;;;;;4.00;1.27;;;;;;;;;;5073508;28;20046;-62
2023/03/26 07:03:52;;;;;;;3.72;1.00;;;;;;;;;;5072721;28;20082;-63
2023/03/26 07:06:18;;;;;;;3.45;1.13;;;;;;;;;;5073215;28;20025;-64
2023/03/26 07:08:44;;;;;;;3.45;1.10;;;;;;;;;;5072825;28;20162;-62
2023/03/26 07:11:10;;;;;;;2.70;1.00;;;;;;;;;;5073239;28;20020;-62
2023/03/26 07:13:36;;;;;;;2.13;0.90;;;;;;;;;;5072327;28;20421;-59
2023/03/26 07:16:02;;;;;;;3.15;0.80;;;;;;;;;;5073031;28;20433;-61
2023/03/26 07:18:28;;;;;;;1.98;0.80;;;;;;;;;;5073293;28;20063;-62
2023/03/26 07:20:54;;;;;;;2.70;1.05;;;;;;;;;;5070977;28;20056;-62
2023/03/26 07:23:20;;;;;;;4.18;0.90;;;;;;;;;;5071735;28;20549;-62
2023/03/26 07:25:48;;;;;;;2.90;1.15;;;;;;;;;;5072523;28;20030;-59
2023/03/26 07:28:26;;;;;;;2.00;1.00;;;;;;;;;;5072844;28;20036;-61
2023/03/26 07:30:54;;;;;;;2.70;0.80;;;;;;;;;;5072379;28;20423;-60
2023/03/26 07:33:39;;;;;;;3.28;1.35;;;;;;;;;;5072627;28;20491;-60
2023/03/26 07:36:14;;;;;;;3.97;1.00;;;;;;;;;;5072412;28;20035;-60
2023/03/26 07:39:08;;;;;;;1.98;0.63;;;;;;;;;;5071942;28;20139;-61
2023/03/26 07:41:34;;;;;;;4.35;1.15;;;;;;;;;;5072514;28;20020;-62
2023/03/26 07:44:10;;;;;;;3.85;1.10;;;;;;;;;;5072622;28;20036;-60
2023/03/26 07:46:38;;;;;;;5.10;1.10;;;;;;;;;;5072242;28;20036;-60
2023/03/26 07:49:04;;;;;;;3.40;0.95;;;;;;;;;;5072387;28;20036;-61
2023/03/26 07:51:31;;;;;;;3.50;0.93;;;;;;;;;;5072196;28;20302;-62
2023/03/26 07:53:59;;;;;;;3.05;0.70;;;;;;;;;;5070812;28;20017;-61
2023/03/26 07:56:28;;;;;;;3.15;1.20;;;;;;;;;;5071553;28;20040;-62
2023/03/26 07:59:06;;;;;;;4.78;1.00;;;;;;;;;;5071767;28;20024;-61
2023/03/26 08:01:35;;;;;;;4.60;1.00;;;;;;;;;;5071424;28;20056;-61
2023/03/26 08:04:10;;;;;;;2.78;1.00;;;;;;;;;;5071533;28;20039;-61
2023/03/26 08:06:44;;;;;;;2.55;0.85;;;;;;;;;;5071405;28;20031;-61
2023/03/26 08:09:19;;;;;;;3.17;0.93;;;;;;;;;;5071721;28;20020;-60
2023/03/26 08:11:45;;;;;;;;;;;;;;;;;;5071906;28;20025;-61
2023/03/26 08:14:17;;;;;;;2.55;0.82;;;;;;;;;;5071961;28;20401;-62
2023/03/26 08:17:03;;;;;;;4.60;0.80;;;;;;;;;;5070937;28;20035;-62
2023/03/26 08:19:37;;;;;;;2.85;0.60;;;;;;;;;;5060588;28;20037;-61
2023/03/26 08:22:11;;;;;;;3.40;1.00;;;;;;;;;;5071816;28;20024;-61
2023/03/26 08:24:52;;;;;;;2.13;0.95;;;;;;;;;;5070521;28;20546;-61
2023/03/26 08:27:36;;;;;;;3.75;1.45;;;;;;;;;;5069093;28;20031;-61
2023/03/26 08:30:32;;;;;;;4.80;1.10;;;;;;;;;;5069517;28;20103;-60
2023/03/26 08:32:59;;;;;;;6.47;1.27;;;;;;;;;;5062875;28;20032;-60
2023/03/26 08:35:26;;;;;;;3.03;1.00;;;;;;;;;;5067196;28;20021;-61
2023/03/26 08:37:52;;;;;;;6.22;0.95;;;;;;;;;;5069389;28;20046;-61
2023/03/26 08:40:37;;;;;;;3.65;1.08;;;;;;;;;;5069745;28;20105;-59
2023/03/26 08:43:10;;;;;;;3.83;1.00;;;;;;;;;;5071517;28;20562;-61
2023/03/26 08:45:36;;;;;;;4.82;1.00;;;;;;;;;;5070782;28;20436;-61
2023/03/26 08:48:05;;;;;;;3.55;1.25;;;;;;;;;;5071424;28;20074;-62
2023/03/26 08:50:35;;;;;;;2.33;0.80;;;;;;;;;;5069830;28;20039;-61
2023/03/26 08:53:07;;;;;;;4.82;1.02;;;;;;;;;;5071509;28;20024;-61
2023/03/26 08:55:52;;;;;;;4.05;1.23;;;;;;;;;;5071453;28;20099;-61
2023/03/26 08:58:27;;;;;;;4.75;1.58;;;;;;;;;;5071131;28;20070;-62
2023/03/26 09:01:08;;;;;;;3.07;0.93;;;;;;;;;;5070408;28;20531;-60
2023/03/26 09:03:41;;;;;;;2.85;0.90;;;;;;;;;;5070501;28;20743;-60
2023/03/26 09:06:07;;;;;;;6.45;1.40;;;;;;;;;;5068648;28;20393;-61
2023/03/26 09:08:42;;;;;;;3.03;1.00;;;;;;;;;;5070637;28;20025;-62
2023/03/26 09:11:14;;;;;;;5.20;1.27;;;;;;;;;;5071028;28;20035;-61
2023/03/26 09:13:52;;;;;;;3.83;1.05;;;;;;;;;;5070638;28;20037;-62
2023/03/26 09:16:20;;;;;;;3.65;1.17;;;;;;;;;;5073982;28;20017;-60
2023/03/26 09:19:05;;;;;;;10.30;1.30;;;;;;;;;;5074587;28;20020;-61
2023/03/26 09:21:46;;;;;;;3.92;0.90;;;;;;;;;;5075235;28;20561;-62
2023/03/26 09:24:13;;;;;;;2.75;1.25;;;;;;;;;;5074869;28;20506;-62
2023/03/26 09:26:58;;;;;;;4.20;1.55;;;;;;;;;;5074931;28;20025;-62
2023/03/26 09:29:30;;;;;;;8.20;1.23;;;;;;;;;;5074578;28;20034;-61
2023/03/26 09:31:56;;;;;;;5.43;1.55;;;;;;;;;;5062607;28;20158;-62
2023/03/26 09:34:25;;;;;;;6.25;1.52;;;;;;;;;;5074465;28;20024;-61
2023/03/26 09:36:56;;;;;;;9.40;1.60;;;;;;;;;;5074069;28;20530;-61
2023/03/26 09:39:30;;;;;;;4.68;1.40;;;;;;;;;;5076010;28;20472;-60
2023/03/26 09:42:07;;;;;;;5.93;1.80;;;;;;;;;;5073566;28;20027;-62
2023/03/26 09:44:36;;;;;;;7.13;1.60;;;;;;;;;;5074090;28;20039;-60
2023/03/26 09:47:21;;;;;;;5.45;1.70;;;;;;;;;;5074492;28;20508;-61
2023/03/26 09:49:53;;;;;;;7.07;1.20;;;;;;;;;;5074319;28;20032;-63
2023/03/26 09:52:39;;;;;;;14.40;1.80;;;;;;;;;;5074218;28;20043;-69
2023/03/26 09:55:23;;;;;;;14.80;1.92;;;;;;;;;;5074654;28;20032;-65
2023/03/26 09:58:17;;;;;;;9.95;1.42;;;;;;;;;;5073813;28;20146;-62
2023/03/26 10:00:49;;;;;;;8.15;1.48;;;;;;;;;;5073799;28;20082;-62
2023/03/26 10:03:34;;;;;;;7.30;1.98;;;;;;;;;;5074000;28;20028;-62
2023/03/26 10:06:12;;;;;;;8.90;1.67;;;;;;;;;;5074189;28;20032;-63
2023/03/26 10:08:43;;;;;;;7.82;2.00;;;;;;;;;;5085981;28;20077;-63
2023/03/26 10:11:09;;;;;;;7.38;1.42;;;;;;;;;;5092405;28;20016;-64
2023/03/26 10:13:50;;;;;;;12.52;1.80;;;;;;;;;;5093738;28;20016;-62
2023/03/26 10:16:41;;;;;;;8.48;1.27;;;;;;;;;;5094300;28;20427;-61
2023/03/26 10:19:10;;;;;;;7.00;1.30;;;;;;;;;;5092938;28;20028;-62
2023/03/26 10:21:50;;;;;;;5.93;1.42;;;;;;;;;;5093750;28;20031;-62
2023/03/26 10:24:25;;;;;;;8.95;1.48;;;;;;;;;;5094158;28;20089;-62
2023/03/26 10:26:50;;;;;;;9.60;1.87;;;;;;;;;;5093541;28;20193;-62
2023/03/26 10:29:35;;;;;;;6.13;1.50;;;;;;;;;;5094255;28;20095;-63
2023/03/26 10:32:01;;;;;;;8.07;2.38;;;;;;;;;;5094346;28;20032;-60
2023/03/26 10:34:27;;;;;;;6.18;1.30;;;;;;;;;;5094074;28;20026;-65
2023/03/26 10:37:12;;;;;;;7.72;1.65;;;;;;;;;;5093794;28;20097;-64
2023/03/26 10:39:56;;;;;;;5.15;1.33;;;;;;;;;;5093789;28;20028;-63
2023/03/26 10:42:57;;;;;;;5.47;1.70;;;;;;;;;;5093922;28;20051;-64
2023/03/26 10:45:32;;;;;;;5.15;1.40;;;;;;;;;;5051371;28;20047;-66
2023/03/26 10:47:58;;;;;;;5.87;1.73;;;;;;;;;;5087608;28;20043;-66
2023/03/26 10:50:35;;;;;;;4.18;1.33;;;;;;;;;;5093914;28;20262;-63
2023/03/26 10:53:09;;;;;;;4.53;1.30;;;;;;;;;;5094050;28;20016;-64
2023/03/26 10:55:37;;;;;;;3.72;1.33;;;;;;;;;;5093654;28;20032;-62
2023/03/26 10:58:24;;;;;;;4.45;1.77;;;;;;;;;;5093711;28;20099;-64
2023/03/26 11:00:55;;;;;;;5.70;1.35;;;;;;;;;;5093302;28;20020;-61
2023/03/26 11:03:43;;;;;;;3.70;1.55;;;;;;;;;;5093540;28;20491;-62
2023/03/26 11:06:15;;;;;;;5.07;1.30;;;;;;;;;;5093357;28;20028;-61
2023/03/26 11:08:55;;;;;;;6.85;1.33;;;;;;;;;;5093129;28;20027;-60
2023/03/26 11:11:20;;;;;;;4.18;1.40;;;;;;;;;;5093441;28;20176;-61
2023/03/26 11:14:19;;;;;;;7.00;1.30;;;;;;;;;;5093040;28;20024;-61
2023/03/26 11:16:51;;;;;;;4.20;1.23;;;;;;;;;;5070345;28;20380;-62
2023/03/26 11:19:40;;;;;;;4.22;1.20;;;;;;;;;;5093161;28;20131;-62
2023/03/26 11:22:06;;;;;;;4.35;1.20;;;;;;;;;;5093069;28;20392;-62
2023/03/26 11:24:32;;;;;;;4.45;1.08;;;;;;;;;;5093255;28;20036;-61
2023/03/26 11:27:00;;;;;;;3.75;1.30;;;;;;;;;;5092751;28;20020;-62
2023/03/26 11:29:40;;;;;;;5.10;1.20;;;;;;;;;;5091567;28;20434;-61
2023/03/26 11:32:14;;;;;;;2.80;1.08;;;;;;;;;;5093047;28;20103;-61
2023/03/26 11:34:44;;;;;;;4.43;1.30;;;;;;;;;;5092444;28;20016;-62
2023/03/26 11:37:23;;;;;;;6.43;1.20;;;;;;;;;;5092401;28;20024;-62
2023/03/26 11:39:50;;;;;;;4.25;1.10;;;;;;;;;;5092225;28;20020;-61
2023/03/26 11:42:18;;;;;;;1.88;0.73;;;;;;;;;;5093634;28;20055;-61
2023/03/26 11:44:47;;;;;;;1.92;0.85;;;;;;;;;;5092379;28;20032;-61
2023/03/26 11:47:15;;;;;;;4.25;0.90;;;;;;;;;;5092722;28;20027;-61
2023/03/26 11:49:42;;;;;;;3.28;1.15;;;;;;;;;;5092282;28;20024;-62
2023/03/26 11:52:10;;;;;;;4.45;1.10;;;;;;;;;;5092402;28;20020;-61
2023/03/26 11:54:37;;;;;;;3.83;1.20;;;;;;;;;;5092297;28;20032;-62
2023/03/26 11:57:05;;;;;;;3.17;1.10;;;;;;;;;;5092868;28;20028;-61
2023/03/26 11:59:34;;;;;;;4.00;0.98;;;;;;;;;;5092644;28;20458;-61
2023/03/26 12:02:00;;;;;;;2.95;0.98;;;;;;;;;;5092522;28;20553;-62
2023/03/26 12:04:39;;;;;;;3.17;1.15;;;;;;;;;;5092239;28;20028;-61
2023/03/26 12:07:24;;;;;;;2.10;1.00;;;;;;;;;;5092349;28;20042;-61
2023/03/26 12:09:51;;;;;;;2.67;0.90;;;;;;;;;;5092023;28;20024;-63
2023/03/26 12:12:17;;;;;;;2.83;0.90;;;;;;;;;;5092192;28;20024;-61
2023/03/26 12:14:43;;;;;;;1.90;0.82;;;;;;;;;;5091810;28;20036;-63
2023/03/26 12:17:13;;;;;;;3.65;0.85;;;;;;;;;;5092010;28;20020;-65
2023/03/26 12:19:43;;;;;;;2.80;0.98;;;;;;;;;;5091826;28;20097;-65
2023/03/26 12:22:31;;;;;;;4.40;1.35;;;;;;;;;;5088197;28;20028;-64
2023/03/26 12:25:15;;;;;;;1.50;0.60;;;;;;;;;;5066366;28;20033;-63
2023/03/26 12:28:12;;;;;;;2.00;1.00;;;;;;;;;;5066710;28;20085;-61
2023/03/26 12:30:40;;;;;;;3.28;1.30;;;;;;;;;;5072318;28;20032;-65
2023/03/26 12:33:15;;;;;;;3.30;0.75;;;;;;;;;;5072113;28;20051;-62
2023/03/26 12:35:41;;;;;;;2.25;0.90;;;;;;;;;;5069461;28;20108;-66
2023/03/26 12:38:26;;;;;;;3.63;1.10;;;;;;;;;;5066942;28;20179;-63
2023/03/26 12:41:11;;;;;;;4.30;0.90;;;;;;;;;;5060908;28;20063;-62
2023/03/26 12:43:51;;;;;;;3.15;0.93;;;;;;;;;;5067082;28;20035;-63
2023/03/26 12:46:26;;;;;;;2.05;0.80;;;;;;;;;;5068951;28;20031;-61
2023/03/26 12:48:58;;;;;;;3.50;1.35;;;;;;;;;;5067894;28;20023;-63
2023/03/26 12:51:24;;;;;;;4.43;1.30;;;;;;;;;;5071234;28;20062;-62
2023/03/26 12:53:56;;;;;;;3.97;1.55;;;;;;;;;;5069516;28;20072;-61
2023/03/26 12:56:26;;;;;;;2.83;1.20;;;;;;;;;;5066763;28;20400;-61
2023/03/26 12:58:53;;;;;;;5.45;1.58;;;;;;;;;;5068964;28;20040;-61
2023/03/26 13:01:29;;;;;;;10.32;1.98;;;;;;;;;;5067636;28;20020;-61
2023/03/26 13:03:55;;;;;;;4.85;1.67;;;;;;;;;;5065973;28;20044;-63
2023/03/26 13:06:28;;;;;;;3.60;1.65;;;;;;;;;;5065917;28;20040;-61
2023/03/26 13:09:21;;;;;;;4.18;1.33;;;;;;;;;;5062728;28;20473;-61
2023/03/26 13:11:55;;;;;;;5.43;1.33;;;;;;;;;;5063885;28;20040;-65
2023/03/26 13:14:21;;;;;;;6.00;1.70;;;;;;;;;;5065811;28;20021;-62
2023/03/26 13:17:06;;;;;;;7.32;1.45;;;;;;;;;;5068974;28;20388;-60
2023/03/26 13:19:41;;;;;;;3.42;1.58;;;;;;;;;;5069546;28;20040;-60
2023/03/26 13:22:14;;;;;;;2.85;1.17;;;;;;;;;;5065747;28;20392;-61
2023/03/26 13:24:54;;;;;;;3.10;1.55;;;;;;;;;;5065135;28;20071;-62
2023/03/26 13:27:41;;;;;;;4.82;1.50;;;;;;;;;;5065556;28;20041;-63
2023/03/26 13:30:30;;;;;;;4.20;1.52;;;;;;;;;;5064106;28;20550;-61
2023/03/26 13:32:59;;;;;;;3.42;1.60;;;;;;;;;;5063051;28;20548;-66
2023/03/26 13:35:31;;;;;;;4.47;1.67;;;;;;;;;;5064551;28;20047;-61
2023/03/26 13:38:07;;;;;;;2.95;1.20;;;;;;;;;;5066230;28;20024;-60
2023/03/26 13:40:44;;;;;;;4.55;1.42;;;;;;;;;;5065898;28;20031;-62
2023/03/26 13:43:26;;;;;;;4.97;1.50;;;;;;;;;;5064633;28;20043;-64
2023/03/26 13:45:58;;;;;;;5.65;1.73;;;;;;;;;;5063746;28;20055;-62
2023/03/26 13:48:26;;;;;;;7.63;1.50;;;;;;;;;;5066516;28;20528;-62
2023/03/26 13:51:13;;;;;;;3.70;1.50;;;;;;;;;;5068745;28;20037;-63
2023/03/26 13:53:49;;;;;;;7.57;1.60;;;;;;;;;;5056835;28;20040;-63
2023/03/26 13:56:17;;;;;;;7.90;1.85;;;;;;;;;;5064584;28;20025;-63
2023/03/26 13:58:46;;;;;;;3.30;1.38;;;;;;;;;;5067285;28;20047;-63
2023/03/26 14:01:33;;;;;;;6.43;1.80;;;;;;;;;;5067241;28;20091;-63
2023/03/26 14:04:07;;;;;;;4.18;1.75;;;;;;;;;;5066304;28;20035;-62
2023/03/26 14:06:33;;;;;;;4.95;1.65;;;;;;;;;;5068549;28;20047;-64
2023/03/26 14:09:03;;;;;;;6.35;2.10;;;;;;;;;;5070240;28;20020;-62
2023/03/26 14:11:36;;;;;;;6.28;1.90;;;;;;;;;;5068145;28;20024;-63
2023/03/26 14:14:02;;;;;;;5.72;1.88;;;;;;;;;;5070006;28;20029;-64
2023/03/26 14:16:37;;;;;;;7.65;1.83;;;;;;;;;;5073207;28;20545;-64
2023/03/26 14:19:22;;;;;;;13.07;2.87;;;;;;;;;;5066009;28;20028;-63
2023/03/26 14:22:06;;;;;;;4.63;1.95;;;;;;;;;;5073518;28;20354;-62
2023/03/26 14:24:41;;;;;;;6.30;1.73;;;;;;;;;;5074189;28;20060;-62
2023/03/26 14:27:23;;;;;;;3.05;1.50;;;;;;;;;;5073041;28;20384;-62
2023/03/26 14:29:56;;;;;;;7.63;2.20;;;;;;;;;;5073643;28;20099;-62
2023/03/26 14:32:22;;;;;;;5.60;2.38;;;;;;;;;;5073586;28;20107;-62
2023/03/26 14:34:57;;;;;;;5.03;1.75;;;;;;;;;;5073143;28;20453;-62
2023/03/26 14:37:41;;;;;;;3.97;1.80;;;;;;;;;;5073855;28;20033;-62
2023/03/26 14:40:20;;;;;;;2.53;1.52;;;;;;;;;;5073751;28;20024;-62
2023/03/26 14:42:53;;;;;;;10.05;2.22;;;;;;;;;;5073510;28;20029;-62
2023/03/26 14:45:22;;;;;;;5.45;1.83;;;;;;;;;;5072176;28;20036;-62
2023/03/26 14:48:18;;;;;;;4.40;1.75;;;;;;;;;;5073352;28;20499;-62
2023/03/26 14:51:01;;;;;;;4.15;2.00;;;;;;;;;;5073351;28;20074;-62
2023/03/26 14:53:29;;;;;;;3.85;2.08;;;;;;;;;;5073070;28;20032;-64
2023/03/26 14:56:14;;;;;;;4.38;1.95;;;;;;;;;;5071152;28;20039;-62
2023/03/26 14:58:58;;;;;;;4.15;1.73;;;;;;;;;;5073010;28;20024;-62
2023/03/26 15:01:25;;;;;;;4.88;1.67;;;;;;;;;;5072727;28;20040;-62
2023/03/26 15:03:51;;;;;;;3.85;1.65;;;;;;;;;;5072769;28;20025;-62
2023/03/26 15:06:34;;;;;;;4.00;1.60;;;;;;;;;;5073152;28;20496;-62
2023/03/26 15:09:32;;;;;;;3.03;1.27;;;;;;;;;;5073418;28;20169;-62